createdAt,value
2023-05-24T00:00:06.465Z,68089.50
2023-05-24T00:02:33.510Z,68081.78
2023-05-24T00:05:01.448Z,68074.59
2023-05-24T00:07:28.645Z,68076.13
2023-05-24T00:09:56.109Z,68073.66
2023-05-24T00:12:23.210Z,68069.31
2023-05-24T00:14:51.277Z,68069.69
2023-05-24T00:17:18.500Z,68062.53
2023-05-24T00:19:45.611Z,68058.19
2023-05-24T00:22:14.067Z,68064.41
2023-05-24T00:24:41.385Z,68051.22
2023-05-24T00:27:08.528Z,68048.19
2023-05-24T00:29:35.684Z,68043.31
2023-05-24T00:32:03.371Z,68042.16
2023-05-24T00:34:30.689Z,68041.41
2023-05-24T00:36:57.971Z,68031.63
2023-05-24T00:39:27.111Z,68035.19
2023-05-24T00:41:54.231Z,68030.84
2023-05-24T00:44:21.365Z,68032.91
2023-05-24T00:46:49.734Z,68020.88
2023-05-24T00:49:17.567Z,68025.00
2023-05-24T00:51:46.286Z,68025.56
2023-05-24T00:54:15.114Z,68023.88
2023-05-24T00:56:43.133Z,68020.13
2023-05-24T00:59:10.635Z,68020.88
2023-05-24T01:01:38.962Z,68021.59
2023-05-24T01:04:07.488Z,68017.66
2023-05-24T01:06:51.743Z,68013.91
2023-05-24T01:09:28.959Z,68015.94
2023-05-24T01:12:16.086Z,68013.69
2023-05-24T01:14:58.136Z,68006.72
2023-05-24T01:17:42.636Z,68005.97
2023-05-24T01:20:13.383Z,68000.31
2023-05-24T01:23:14.796Z,68001.25
2023-05-24T01:26:03.549Z,67994.28
2023-05-24T01:28:33.234Z,67991.28
2023-05-24T01:31:01.981Z,67986.19
2023-05-24T01:33:29.404Z,67986.00
2023-05-24T01:35:57.325Z,67978.06
2023-05-24T01:38:24.471Z,67966.94
2023-05-24T01:41:00.179Z,67967.31
2023-05-24T01:43:37.858Z,67959.59
2023-05-24T01:46:30.208Z,67953.00
2023-05-24T01:49:05.423Z,67950.00
2023-05-24T01:51:51.399Z,67948.50
2023-05-24T01:54:23.230Z,67947.16
2023-05-24T01:56:53.112Z,67948.31
2023-05-24T01:59:23.141Z,67942.06
2023-05-24T02:01:50.994Z,67944.53
2023-05-24T02:04:18.495Z,67942.44
2023-05-24T02:06:45.666Z,67933.22
2023-05-24T02:09:12.852Z,67941.69
2023-05-24T02:11:39.984Z,67930.97
2023-05-24T02:14:07.096Z,67929.66
2023-05-24T02:16:34.889Z,67921.38
2023-05-24T02:19:03.318Z,67927.56
2023-05-24T02:21:30.669Z,67927.00
2023-05-24T02:23:57.769Z,67922.66
2023-05-24T02:26:24.896Z,67922.13
2023-05-24T02:28:52.150Z,67927.19
2023-05-24T02:31:19.365Z,67923.44
2023-05-24T02:33:46.683Z,67919.50
2023-05-24T02:36:13.828Z,67917.41
2023-05-24T02:38:40.894Z,67920.97
2023-05-24T02:41:09.192Z,67920.41
2023-05-24T02:43:36.356Z,67923.44
2023-05-24T02:46:04.159Z,67918.91
2023-05-24T02:48:31.341Z,67916.28
2023-05-24T02:50:58.516Z,67920.41
2023-05-24T02:53:25.716Z,67917.22
2023-05-24T02:55:53.056Z,67913.25
2023-05-24T02:58:20.765Z,67917.22
2023-05-24T03:00:50.394Z,67913.84
2023-05-24T03:03:19.990Z,67913.84
2023-05-24T03:05:47.444Z,67916.09
2023-05-24T03:08:14.617Z,67913.63
2023-05-24T03:10:42.024Z,67910.44
2023-05-24T03:13:09.413Z,67907.25
2023-05-24T03:15:38.108Z,67913.63
2023-05-24T03:18:05.974Z,67916.47
2023-05-24T03:20:33.977Z,67908.94
2023-05-24T03:23:01.340Z,67910.81
2023-05-24T03:25:28.523Z,67911.75
2023-05-24T03:27:55.837Z,67912.50
2023-05-24T03:30:24.473Z,67903.09
2023-05-24T03:32:55.576Z,67904.59
2023-05-24T03:35:22.891Z,67903.09
2023-05-24T03:37:50.370Z,67907.63
2023-05-24T03:40:18.291Z,67910.06
2023-05-24T03:42:52.548Z,67916.47
2023-05-24T03:45:38.549Z,67913.25
2023-05-24T03:48:07.563Z,67907.63
2023-05-24T03:50:35.168Z,67915.69
2023-05-24T03:53:02.949Z,67901.97
2023-05-24T03:55:30.183Z,67906.47
2023-05-24T03:57:58.374Z,67903.47
2023-05-24T04:00:26.175Z,67896.88
2023-05-24T04:02:53.970Z,67904.59
2023-05-24T04:05:27.300Z,67897.25
2023-05-24T04:07:54.520Z,67895.94
2023-05-24T04:10:22.987Z,67904.78
2023-05-24T04:12:50.126Z,67908.75
2023-05-24T04:15:17.664Z,67908.94
2023-05-24T04:17:46.891Z,67917.78
2023-05-24T04:20:16.089Z,67917.59
2023-05-24T04:22:43.443Z,67930.59
2023-05-24T04:25:10.736Z,67932.84
2023-05-24T04:27:38.101Z,67935.31
2023-05-24T04:30:06.024Z,67944.16
2023-05-24T04:32:33.252Z,67949.44
2023-05-24T04:35:03.241Z,67947.16
2023-05-24T04:37:35.366Z,67949.81
2023-05-24T04:40:04.527Z,67951.50
2023-05-24T04:42:31.994Z,67942.06
2023-05-24T04:44:59.574Z,67938.13
2023-05-24T04:47:26.826Z,67939.44
2023-05-24T04:49:54.481Z,67936.78
2023-05-24T04:52:21.931Z,67940.41
2023-05-24T04:54:50.062Z,67935.31
2023-05-24T04:57:17.727Z,67934.38
2023-05-24T04:59:45.140Z,67939.25
2023-05-24T05:02:12.501Z,67943.59
2023-05-24T05:04:39.716Z,67939.06
2023-05-24T05:07:07.218Z,67937.56
2023-05-24T05:09:34.382Z,67945.06
2023-05-24T05:12:02.018Z,67943.97
2023-05-24T05:14:29.678Z,67937.56
2023-05-24T05:16:57.261Z,67941.88
2023-05-24T05:19:24.606Z,67949.25
2023-05-24T05:21:56.494Z,67955.47
2023-05-24T05:24:35.501Z,67953.19
2023-05-24T05:27:08.757Z,67954.91
2023-05-24T05:29:49.968Z,67952.81
2023-05-24T05:32:19.330Z,67961.88
2023-05-24T05:34:46.971Z,67971.13
2023-05-24T05:37:24.161Z,67991.66
2023-05-24T05:40:00.396Z,68002.78
2023-05-24T05:42:27.603Z,68017.47
2023-05-24T05:44:55.271Z,68007.31
2023-05-24T05:47:31.534Z,68022.19
2023-05-24T05:49:58.673Z,68027.81
2023-05-24T05:52:27.095Z,68030.66
2023-05-24T05:54:59.154Z,68034.06
2023-05-24T05:57:26.833Z,68044.41
2023-05-24T05:59:56.712Z,68058.56
2023-05-24T06:02:24.001Z,68067.63
2023-05-24T06:05:00.136Z,68089.50
2023-05-24T06:07:30.103Z,68109.88
2023-05-24T06:10:08.258Z,68090.47
2023-05-24T06:12:35.973Z,68067.06
2023-05-24T06:15:05.074Z,68062.91
2023-05-24T06:17:44.804Z,68060.84
2023-05-24T06:20:21.071Z,68059.69
2023-05-24T06:22:51.423Z,68075.91
2023-05-24T06:25:27.232Z,68062.72
2023-05-24T06:27:57.145Z,68065.34
2023-05-24T06:30:25.055Z,68091.19
2023-05-24T06:32:52.114Z,68128.19
2023-05-24T06:35:19.179Z,68134.97
2023-05-24T06:37:49.376Z,68129.69
2023-05-24T06:40:16.566Z,68121.41
2023-05-24T06:42:43.771Z,68125.94
2023-05-24T06:45:14.954Z,68112.91
2023-05-24T06:47:42.484Z,68115.53
2023-05-24T06:50:15.234Z,68119.66
2023-05-24T06:52:54.021Z,68121.03
2023-05-24T06:55:23.727Z,68108.56
2023-05-24T06:57:51.175Z,68098.00
2023-05-24T07:00:27.219Z,68096.13
2023-05-24T07:02:58.484Z,68091.03
2023-05-24T07:05:29.003Z,68097.06
2023-05-24T07:08:13.643Z,68092.50
2023-05-24T07:10:43.487Z,68094.41
2023-05-24T07:13:23.195Z,68095.34
2023-05-24T07:15:53.195Z,68078.38
2023-05-24T07:18:27.305Z,68069.31
2023-05-24T07:20:55.569Z,68062.94
2023-05-24T07:23:23.303Z,68069.91
2023-05-24T07:25:51.295Z,68068.19
2023-05-24T07:28:20.135Z,68057.66
2023-05-24T07:30:47.773Z,68052.53
2023-05-24T07:33:15.670Z,68057.66
2023-05-24T07:35:42.913Z,68076.31
2023-05-24T07:38:11.868Z,68094.78
2023-05-24T07:40:42.778Z,68107.41
2023-05-24T07:43:11.916Z,68112.50
2023-05-24T07:45:42.466Z,68125.19
2023-05-24T07:48:13.204Z,68111.38
2023-05-24T07:50:43.691Z,68099.88
2023-05-24T07:53:17.080Z,68090.06
2023-05-24T07:55:46.765Z,68086.09
2023-05-24T07:58:14.000Z,68092.50
2023-05-24T08:00:41.824Z,68107.78
2023-05-24T08:03:09.135Z,68099.31
2023-05-24T08:05:42.511Z,68095.16
2023-05-24T08:08:10.522Z,68091.56
2023-05-24T08:10:43.937Z,68094.22
2023-05-24T08:13:14.212Z,68102.72
2023-05-24T08:15:46.718Z,68111.19
2023-05-24T08:20:56.030Z,68133.84
2023-05-24T08:23:25.500Z,68140.84
2023-05-24T08:25:55.602Z,68132.34
2023-05-24T08:28:22.886Z,68137.81
2023-05-24T08:30:50.244Z,68162.72
2023-05-24T08:33:17.531Z,68182.72
2023-05-24T08:35:45.532Z,68199.91
2023-05-24T08:38:18.395Z,68218.78
2023-05-24T08:40:49.310Z,68240.69
2023-05-24T08:43:20.398Z,68220.13
2023-05-24T08:45:50.017Z,68207.09
2023-05-24T08:48:21.071Z,68210.28
2023-05-24T08:50:49.924Z,68199.53
2023-05-24T08:53:17.373Z,68194.63
2023-05-24T08:55:45.910Z,68204.63
2023-05-24T08:58:13.386Z,68203.69
2023-05-24T09:00:51.236Z,68202.19
2023-05-24T09:03:22.015Z,68206.69
2023-05-24T09:05:49.923Z,68211.03
2023-05-24T09:08:21.118Z,68202.34
2023-05-24T09:10:57.420Z,68230.47
2023-05-24T09:13:26.552Z,68264.84
2023-05-24T09:15:53.883Z,68307.53
2023-05-24T09:18:21.378Z,68396.00
2023-05-24T09:20:48.551Z,68446.09
2023-05-24T09:23:16.741Z,68517.81
2023-05-24T09:25:48.216Z,68475.22
2023-05-24T09:28:28.529Z,68466.34
2023-05-24T09:31:03.905Z,68427.00
2023-05-24T09:33:33.992Z,68391.28
2023-05-24T09:36:05.032Z,68383.91
2023-05-24T09:38:38.310Z,68389.19
2023-05-24T09:41:08.350Z,68405.47
2023-05-24T09:43:52.339Z,68390.50
2023-05-24T09:46:20.255Z,68422.66
2023-05-24T09:48:57.340Z,68430.22
2023-05-24T09:51:30.430Z,68423.41
2023-05-24T09:54:11.074Z,68435.34
2023-05-24T09:56:40.117Z,68471.81
2023-05-24T09:59:08.514Z,68508.72
2023-05-24T10:01:36.514Z,68433.03
2023-05-24T10:04:09.348Z,68484.69
2023-05-24T10:06:41.754Z,68542.22
2023-05-24T10:09:16.837Z,68589.16
2023-05-24T10:11:44.317Z,68602.41
2023-05-24T10:14:12.172Z,68651.44
2023-05-24T10:16:39.658Z,68587.28
2023-05-24T10:19:10.067Z,68568.34
2023-05-24T10:21:44.981Z,68650.50
2023-05-24T10:24:22.201Z,68682.16
2023-05-24T10:26:54.406Z,68623.03
2023-05-24T10:29:31.707Z,68540.13
2023-05-24T10:32:00.182Z,68516.66
2023-05-24T10:34:28.114Z,68581.19
2023-05-24T10:36:55.373Z,68598.25
2023-05-24T10:39:23.190Z,68625.69
2023-05-24T10:41:51.090Z,68693.69
2023-05-24T10:44:20.542Z,68739.91
2023-05-24T10:47:06.852Z,68804.75
2023-05-24T10:49:36.202Z,68749.75
2023-05-24T10:52:10.934Z,68830.53
2023-05-24T10:54:41.310Z,68724.00
2023-05-24T10:57:24.698Z,68619.81
2023-05-24T10:59:52.456Z,68578.00
2023-05-24T11:02:20.377Z,68721.53
2023-05-24T11:04:49.545Z,68673.44
2023-05-24T11:07:19.912Z,68718.31
2023-05-24T11:09:53.128Z,68731.75
2023-05-24T11:12:21.073Z,68714.72
2023-05-24T11:14:49.888Z,68631.56
2023-05-24T11:17:19.325Z,68594.47
2023-05-24T11:19:55.140Z,68578.75
2023-05-24T11:22:24.723Z,68582.13
2023-05-24T11:24:53.499Z,68584.03
2023-05-24T11:27:21.857Z,68548.44
2023-05-24T11:29:49.763Z,68562.06
2023-05-24T11:32:18.898Z,68536.34
2023-05-24T11:34:51.259Z,68540.88
2023-05-24T11:37:19.122Z,68542.03
2023-05-24T11:39:50.222Z,68558.69
2023-05-24T11:42:18.902Z,68648.00
2023-05-24T11:44:50.021Z,68708.47
2023-05-24T11:47:20.996Z,68721.53
2023-05-24T11:49:52.916Z,68684.59
2023-05-24T11:52:20.822Z,68692.00
2023-05-24T11:54:49.403Z,68714.91
2023-05-24T11:57:19.616Z,68714.72
2023-05-24T11:59:47.995Z,68698.81
2023-05-24T12:02:15.429Z,68725.91
2023-05-24T12:04:43.450Z,68702.41
2023-05-24T12:07:12.641Z,68613.94
2023-05-24T12:09:40.181Z,68571.00
2023-05-24T12:12:08.115Z,68529.34
2023-05-24T12:14:36.118Z,68533.88
2023-05-24T12:17:03.671Z,68545.06
2023-05-24T12:19:36.852Z,68533.34
2023-05-24T12:22:07.284Z,68626.81
2023-05-24T12:24:35.616Z,68700.69
2023-05-24T12:27:08.219Z,68791.47
2023-05-24T12:29:40.931Z,68811.56
2023-05-24T12:32:13.673Z,68790.50
2023-05-24T12:34:43.969Z,68830.53
2023-05-24T12:37:13.442Z,68873.56
2023-05-24T12:39:43.356Z,68881.94
2023-05-24T12:42:13.335Z,68821.81
2023-05-24T12:44:41.251Z,68843.41
2023-05-24T12:47:09.313Z,68849.09
2023-05-24T12:49:37.424Z,68792.22
2023-05-24T12:52:04.871Z,68712.63
2023-05-24T12:54:32.727Z,68711.69
2023-05-24T12:57:00.657Z,68773.84
2023-05-24T12:59:29.146Z,68815.56
2023-05-24T13:01:56.944Z,68850.03
2023-05-24T13:04:27.788Z,68881.94
2023-05-24T13:06:55.940Z,68881.38
2023-05-24T13:09:24.291Z,68892.00
2023-05-24T13:11:52.803Z,68920.03
2023-05-24T13:14:20.815Z,68941.31
2023-05-24T13:16:48.878Z,68947.56
2023-05-24T13:19:17.415Z,68983.44
2023-05-24T13:21:45.373Z,68999.38
2023-05-24T13:24:16.017Z,68996.19
2023-05-24T13:26:43.915Z,68963.91
2023-05-24T13:31:51.201Z,68925.72
2023-05-24T13:34:21.209Z,68898.63
2023-05-24T13:36:48.818Z,68870.91
2023-05-24T13:39:16.809Z,68851.03
2023-05-24T13:41:45.277Z,68811.56
2023-05-24T13:44:13.872Z,68766.06
2023-05-24T13:46:42.110Z,68760.59
2023-05-24T13:49:11.120Z,68743.13
2023-05-24T13:51:39.233Z,68766.44
2023-05-24T13:54:07.840Z,68761.91
2023-05-24T13:56:36.763Z,68806.09
2023-05-24T13:59:05.579Z,68838.13
2023-05-24T14:01:34.411Z,68889.34
2023-05-24T14:04:02.775Z,68897.69
2023-05-24T14:06:30.782Z,68828.06
2023-05-24T14:09:01.559Z,68816.13
2023-05-24T14:11:31.788Z,68802.47
2023-05-24T14:16:41.545Z,68769.84
2023-05-24T14:19:09.415Z,68820.69
2023-05-24T14:21:37.582Z,68882.09
2023-05-24T14:24:05.192Z,68894.44
2023-05-24T14:26:32.956Z,68891.22
2023-05-24T14:29:00.723Z,68810.66
2023-05-24T14:31:28.178Z,68789.59
2023-05-24T14:33:55.688Z,68792.03
2023-05-24T14:36:23.430Z,68787.09
2023-05-24T14:38:51.240Z,68736.31
2023-05-24T14:41:18.775Z,68732.50
2023-05-24T14:43:46.266Z,68696.72
2023-05-24T14:46:13.669Z,68721.16
2023-05-24T14:48:41.785Z,68722.84
2023-05-24T14:51:09.412Z,68749.00
2023-05-24T14:53:36.874Z,68804.19
2023-05-24T14:56:06.377Z,68849.50
2023-05-24T14:58:33.896Z,68857.06
2023-05-24T15:01:01.868Z,68857.06
2023-05-24T15:03:29.318Z,68810.81
2023-05-24T15:05:56.872Z,68807.78
2023-05-24T15:08:24.285Z,68831.69
2023-05-24T15:10:51.933Z,68841.72
2023-05-24T15:13:20.413Z,68819.13
2023-05-24T15:15:47.901Z,68790.50
2023-05-24T15:18:15.664Z,68801.91
2023-05-24T15:20:44.269Z,68817.25
2023-05-24T15:23:12.246Z,68845.72
2023-05-24T15:25:39.650Z,68881.38
2023-05-24T15:28:07.360Z,68855.38
2023-05-24T15:30:35.141Z,68839.44
2023-05-24T15:33:02.512Z,68834.31
2023-05-24T15:35:29.895Z,68822.19
2023-05-24T15:37:58.051Z,68794.50
2023-05-24T15:40:25.869Z,68754.34
2023-05-24T15:42:55.647Z,68699.38
2023-05-24T15:45:23.240Z,68660.16
2023-05-24T15:47:51.045Z,68638.34
2023-05-24T15:50:25.840Z,68659.78
2023-05-24T15:52:59.499Z,68670.41
2023-05-24T15:55:27.060Z,68681.56
2023-05-24T15:57:54.546Z,68695.22
2023-05-24T16:00:22.120Z,68710.16
2023-05-24T16:02:49.980Z,68713.94
2023-05-24T16:05:20.475Z,68709.22
2023-05-24T16:07:48.791Z,68699.38
2023-05-24T16:10:17.677Z,68673.59
2023-05-24T16:12:45.229Z,68645.56
2023-05-24T16:15:16.126Z,68627.94
2023-05-24T16:17:47.648Z,68606.38
2023-05-24T16:20:16.183Z,68610.72
2023-05-24T16:22:50.057Z,68580.25
2023-05-24T16:25:17.651Z,68561.34
2023-05-24T16:27:47.502Z,68547.88
2023-05-24T16:30:19.194Z,68544.09
2023-05-24T16:32:48.164Z,68531.44
2023-05-24T16:35:16.634Z,68525.75
2023-05-24T16:37:52.072Z,68544.09
2023-05-24T16:40:19.568Z,68561.50
2023-05-24T16:42:51.149Z,68566.03
2023-05-24T16:45:19.376Z,68590.66
2023-05-24T16:47:50.103Z,68598.63
2023-05-24T16:50:25.751Z,68601.63
2023-05-24T16:52:57.606Z,68598.41
2023-05-24T16:55:25.384Z,68604.28
2023-05-24T16:57:52.832Z,68580.63
2023-05-24T17:00:21.213Z,68551.31
2023-05-24T17:02:51.454Z,68546.41
2023-05-24T17:05:19.650Z,68553.19
2023-05-24T17:07:52.249Z,68584.03
2023-05-24T17:10:20.549Z,68602.78
2023-05-24T17:12:48.080Z,68599.56
2023-05-24T17:15:15.824Z,68564.94
2023-05-24T17:17:43.360Z,68566.25
2023-05-24T17:20:11.265Z,68582.31
2023-05-24T17:22:38.674Z,68569.84
2023-05-24T17:25:06.451Z,68549.59
2023-05-24T17:27:34.080Z,68545.63
2023-05-24T17:30:01.740Z,68555.66
2023-05-24T17:32:29.423Z,68568.53
2023-05-24T17:34:57.181Z,68578.00
2023-05-24T17:37:24.812Z,68581.19
2023-05-24T17:39:52.888Z,68584.41
2023-05-24T17:42:20.370Z,68571.72
2023-05-24T17:44:48.952Z,68568.53
2023-05-24T17:47:17.274Z,68560.03
2023-05-24T17:49:44.822Z,68550.53
2023-05-24T17:52:14.708Z,68552.44
2023-05-24T17:54:43.323Z,68543.91
2023-05-24T17:57:10.961Z,68533.13
2023-05-24T17:59:38.906Z,68527.66
2023-05-24T18:02:09.001Z,68517.81
2023-05-24T18:04:37.408Z,68522.53
2023-05-24T18:07:05.099Z,68511.19
2023-05-24T18:09:32.553Z,68500.78
2023-05-24T18:12:00.060Z,68483.72
2023-05-24T18:14:27.855Z,68474.09
2023-05-24T18:16:58.470Z,68477.13
2023-05-24T18:19:26.665Z,68476.53
2023-05-24T18:21:54.873Z,68467.84
2023-05-24T18:24:23.071Z,68457.28
2023-05-24T18:26:50.570Z,68442.50
2023-05-24T18:29:18.030Z,68420.19
2023-05-24T18:31:46.480Z,68413.19
2023-05-24T18:34:14.309Z,68403.00
2023-05-24T18:36:41.807Z,68397.72
2023-05-24T18:39:09.515Z,68393.34
2023-05-24T18:41:37.532Z,68390.91
2023-05-24T18:44:04.982Z,68381.25
2023-05-24T18:46:33.329Z,68372.75
2023-05-24T18:49:03.046Z,68361.22
2023-05-24T18:51:30.778Z,68354.41
2023-05-24T18:53:58.441Z,68346.47
2023-05-24T18:56:26.716Z,68335.34
2023-05-24T18:58:58.768Z,68327.22
2023-05-24T19:01:27.981Z,68326.44
2023-05-24T19:03:55.906Z,68324.72
2023-05-24T19:06:23.956Z,68324.53
2023-05-24T19:08:52.029Z,68324.38
2023-05-24T19:11:20.239Z,68322.84
2023-05-24T19:13:48.025Z,68319.06
2023-05-24T19:16:17.953Z,68310.94
2023-05-24T19:18:46.365Z,68311.13
2023-05-24T19:21:14.796Z,68309.25
2023-05-24T19:23:42.776Z,68292.06
2023-05-24T19:26:10.289Z,68284.50
2023-05-24T19:28:40.443Z,68277.13
2023-05-24T19:31:08.096Z,68268.25
2023-05-24T19:33:42.645Z,68262.97
2023-05-24T19:36:25.951Z,68253.53
2023-05-24T19:38:55.006Z,68248.81
2023-05-24T19:41:22.617Z,68244.28
2023-05-24T19:43:50.219Z,68241.63
2023-05-24T19:46:19.008Z,68257.31
2023-05-24T19:48:46.586Z,68264.28
2023-05-24T19:51:15.762Z,68258.44
2023-05-24T19:53:43.969Z,68265.81
2023-05-24T19:56:11.655Z,68272.78
2023-05-24T19:58:39.370Z,68271.09
2023-05-24T20:01:07.208Z,68272.97
2023-05-24T20:03:34.949Z,68256.56
2023-05-24T20:06:02.554Z,68255.03
2023-05-24T20:08:30.219Z,68244.84
2023-05-24T20:10:58.146Z,68246.34
2023-05-24T20:13:26.079Z,68239.94
2023-05-24T20:15:55.893Z,68247.84
2023-05-24T20:18:24.022Z,68235.97
2023-05-24T20:20:51.606Z,68222.16
2023-05-24T20:23:19.055Z,68201.81
2023-05-24T20:25:46.849Z,68198.78
2023-05-24T20:28:28.777Z,68196.13
2023-05-24T20:30:58.039Z,68197.84
2023-05-24T20:33:25.630Z,68206.91
2023-05-24T20:35:54.467Z,68212.75
2023-05-24T20:38:22.282Z,68217.28
2023-05-24T20:40:50.106Z,68219.16
2023-05-24T20:43:18.203Z,68221.44
2023-05-24T20:45:46.630Z,68212.94
2023-05-24T20:48:14.833Z,68219.34
2023-05-24T20:50:42.549Z,68221.44
2023-05-24T20:53:10.063Z,68216.72
2023-05-24T20:55:37.870Z,68211.03
2023-05-24T20:58:05.293Z,68222.75
2023-05-24T21:00:32.886Z,68222.75
2023-05-24T21:03:00.396Z,68212.19
2023-05-24T21:05:28.110Z,68207.47
2023-05-24T21:07:56.041Z,68205.00
2023-05-24T21:10:23.550Z,68195.19
2023-05-24T21:12:50.994Z,68196.69
2023-05-24T21:15:18.598Z,68192.16
2023-05-24T21:17:46.262Z,68188.22
2023-05-24T21:20:13.716Z,68181.59
2023-05-24T21:22:41.455Z,68179.91
2023-05-24T21:25:09.891Z,68183.66
2023-05-24T21:27:37.659Z,68180.47
2023-05-24T21:30:05.623Z,68168.56
2023-05-24T21:32:32.910Z,68161.22
2023-05-24T21:35:00.265Z,68161.97
2023-05-24T21:37:27.722Z,68163.09
2023-05-24T21:39:55.222Z,68161.22
2023-05-24T21:42:22.906Z,68160.66
2023-05-24T21:44:50.281Z,68160.09
2023-05-24T21:47:17.969Z,68158.94
2023-05-24T21:49:45.572Z,68161.03
2023-05-24T21:52:23.142Z,68156.50
2023-05-24T21:54:51.077Z,68150.25
2023-05-24T21:57:18.746Z,68140.25
2023-05-24T21:59:46.613Z,68141.56
2023-05-24T22:02:17.949Z,68135.75
2023-05-24T22:04:45.671Z,68134.78
2023-05-24T22:07:13.975Z,68128.97
2023-05-24T22:09:41.455Z,68127.63
2023-05-24T22:12:08.880Z,68123.84
2023-05-24T22:14:36.482Z,68125.56
2023-05-24T22:17:04.085Z,68133.66
2023-05-24T22:19:39.430Z,68125.34
2023-05-24T22:22:08.710Z,68114.38
2023-05-24T22:24:36.507Z,68115.72
2023-05-24T22:27:04.186Z,68113.06
2023-05-24T22:29:31.565Z,68117.78
2023-05-24T22:31:59.118Z,68111.56
2023-05-24T22:34:27.866Z,68106.28
2023-05-24T22:36:57.739Z,68099.69
2023-05-24T22:39:25.944Z,68099.47
2023-05-24T22:41:53.679Z,68087.22
2023-05-24T22:44:21.229Z,68077.81
2023-05-24T22:46:57.238Z,68077.59
2023-05-24T22:49:29.653Z,68076.50
2023-05-24T22:51:57.172Z,68068.38
2023-05-24T22:54:24.717Z,68060.47
2023-05-24T22:56:52.094Z,68057.44
2023-05-24T22:59:19.543Z,68053.84
2023-05-24T23:01:47.414Z,68049.34
2023-05-24T23:06:46.574Z,68045.72
2023-05-24T23:09:14.174Z,68041.41
2023-05-24T23:11:43.094Z,68036.31
2023-05-24T23:14:11.715Z,68031.44
2023-05-24T23:16:45.791Z,68030.09
2023-05-24T23:19:18.934Z,68031.03
2023-05-24T23:21:46.720Z,68020.66
2023-05-24T23:24:16.092Z,68018.78
2023-05-24T23:26:44.111Z,68010.28
2023-05-24T23:29:11.980Z,67990.34
2023-05-24T23:31:39.522Z,67980.16
2023-05-24T23:34:07.510Z,67972.22
2023-05-24T23:36:35.045Z,67971.28
2023-05-24T23:39:02.357Z,67968.47
2023-05-24T23:41:30.121Z,67965.84
2023-05-24T23:43:57.731Z,67963.56
2023-05-24T23:46:25.452Z,67971.09
2023-05-24T23:48:52.954Z,67962.28
2023-05-24T23:51:20.628Z,67970.72
2023-05-24T23:53:48.337Z,67962.06
2023-05-24T23:56:15.751Z,67954.72
2023-05-24T23:58:44.000Z,67953.97
